sensor_id;sensor_type;location;lat;lon;timestamp;pressure;altitude;pressure_sealevel;temperature;humidity
74466;BME280;62916;50.044;15.938;2023-04-30T00:01:41;99276.54;;;18.87;56.33
74466;BME280;62916;50.044;15.938;2023-04-30T00:04:12;99280.89;;;18.86;56.45
74466;BME280;62916;50.044;15.938;2023-04-30T00:06:43;99285.54;;;18.86;56.37
74466;BME280;62916;50.044;15.938;2023-04-30T00:09:14;99281.40;;;18.85;56.39
74466;BME280;62916;50.044;15.938;2023-04-30T00:11:45;99282.98;;;18.85;56.43
74466;BME280;62916;50.044;15.938;2023-04-30T00:14:16;99284.85;;;18.84;56.57
74466;BME280;62916;50.044;15.938;2023-04-30T00:16:47;99281.48;;;18.81;56.50
74466;BME280;62916;50.044;15.938;2023-04-30T00:19:18;99288.86;;;18.83;56.59
74466;BME280;62916;50.044;15.938;2023-04-30T00:21:48;99288.27;;;18.82;56.67
74466;BME280;62916;50.044;15.938;2023-04-30T00:24:19;99286.33;;;18.83;56.67
74466;BME280;62916;50.044;15.938;2023-04-30T00:26:50;99284.64;;;18.83;56.62
74466;BME280;62916;50.044;15.938;2023-04-30T00:29:21;99281.90;;;18.83;56.61
74466;BME280;62916;50.044;15.938;2023-04-30T00:31:51;99277.09;;;18.82;56.59
74466;BME280;62916;50.044;15.938;2023-04-30T00:34:22;99278.57;;;18.81;56.71
74466;BME280;62916;50.044;15.938;2023-04-30T00:36:54;99280.88;;;18.80;56.72
74466;BME280;62916;50.044;15.938;2023-04-30T00:39:25;99287.52;;;18.80;56.75
74466;BME280;62916;50.044;15.938;2023-04-30T00:41:56;99285.94;;;18.80;56.67
74466;BME280;62916;50.044;15.938;2023-04-30T00:44:27;99288.76;;;18.80;56.76
74466;BME280;62916;50.044;15.938;2023-04-30T00:46:58;99287.70;;;18.78;56.91
74466;BME280;62916;50.044;15.938;2023-04-30T00:49:29;99287.48;;;18.78;56.81
74466;BME280;62916;50.044;15.938;2023-04-30T00:52:00;99291.92;;;18.78;56.85
74466;BME280;62916;50.044;15.938;2023-04-30T00:54:30;99290.58;;;18.77;56.88
74466;BME280;62916;50.044;15.938;2023-04-30T00:57:02;99295.54;;;18.77;56.87
74466;BME280;62916;50.044;15.938;2023-04-30T00:59:35;99294.86;;;18.76;56.92
74466;BME280;62916;50.044;15.938;2023-04-30T01:02:06;99299.25;;;18.75;56.95
74466;BME280;62916;50.044;15.938;2023-04-30T01:04:38;99298.80;;;18.76;56.96
74466;BME280;62916;50.044;15.938;2023-04-30T01:07:08;99302.15;;;18.73;57.09
74466;BME280;62916;50.044;15.938;2023-04-30T01:09:39;99303.23;;;18.72;57.02
74466;BME280;62916;50.044;15.938;2023-04-30T01:12:14;99305.63;;;18.73;57.04
74466;BME280;62916;50.044;15.938;2023-04-30T01:14:55;99305.80;;;18.73;57.20
74466;BME280;62916;50.044;15.938;2023-04-30T01:17:32;99302.14;;;18.74;57.21
74466;BME280;62916;50.044;15.938;2023-04-30T01:20:08;99307.19;;;18.74;57.25
74466;BME280;62916;50.044;15.938;2023-04-30T01:22:49;99303.48;;;18.74;57.21
74466;BME280;62916;50.044;15.938;2023-04-30T01:25:43;99303.63;;;18.75;57.22
74466;BME280;62916;50.044;15.938;2023-04-30T01:28:15;99305.84;;;18.74;57.20
74466;BME280;62916;50.044;15.938;2023-04-30T01:30:48;99311.45;;;18.74;57.23
74466;BME280;62916;50.044;15.938;2023-04-30T01:33:19;99308.24;;;18.75;57.20
74466;BME280;62916;50.044;15.938;2023-04-30T01:36:08;99315.81;;;18.77;57.14
74466;BME280;62916;50.044;15.938;2023-04-30T01:38:52;99313.27;;;18.78;57.25
74466;BME280;62916;50.044;15.938;2023-04-30T01:41:31;99318.77;;;18.78;57.15
74466;BME280;62916;50.044;15.938;2023-04-30T01:44:15;99324.45;;;18.78;57.23
74466;BME280;62916;50.044;15.938;2023-04-30T01:46:54;99324.08;;;18.77;57.24
74466;BME280;62916;50.044;15.938;2023-04-30T01:49:36;99325.92;;;18.77;57.20
74466;BME280;62916;50.044;15.938;2023-04-30T01:52:16;99325.14;;;18.78;57.21
74466;BME280;62916;50.044;15.938;2023-04-30T01:54:54;99329.86;;;18.77;57.23
74466;BME280;62916;50.044;15.938;2023-04-30T01:57:31;99334.14;;;18.76;57.20
74466;BME280;62916;50.044;15.938;2023-04-30T02:00:04;99333.70;;;18.76;57.27
74466;BME280;62916;50.044;15.938;2023-04-30T02:02:37;99338.36;;;18.76;57.24
74466;BME280;62916;50.044;15.938;2023-04-30T02:05:09;99340.05;;;18.76;57.23
74466;BME280;62916;50.044;15.938;2023-04-30T02:07:41;99344.61;;;18.75;57.16
74466;BME280;62916;50.044;15.938;2023-04-30T02:10:13;99344.39;;;18.74;57.17
74466;BME280;62916;50.044;15.938;2023-04-30T02:12:44;99344.06;;;18.74;57.31
74466;BME280;62916;50.044;15.938;2023-04-30T02:15:16;99343.26;;;18.74;57.27
74466;BME280;62916;50.044;15.938;2023-04-30T02:17:47;99345.68;;;18.75;57.18
74466;BME280;62916;50.044;15.938;2023-04-30T02:20:19;99349.11;;;18.74;57.30
74466;BME280;62916;50.044;15.938;2023-04-30T02:22:50;99348.95;;;18.74;57.13
74466;BME280;62916;50.044;15.938;2023-04-30T02:25:21;99352.77;;;18.74;57.26
74466;BME280;62916;50.044;15.938;2023-04-30T02:27:52;99351.83;;;18.73;57.25
74466;BME280;62916;50.044;15.938;2023-04-30T02:30:22;99351.27;;;18.73;57.24
74466;BME280;62916;50.044;15.938;2023-04-30T02:32:53;99353.31;;;18.72;57.32
74466;BME280;62916;50.044;15.938;2023-04-30T02:35:24;99360.45;;;18.72;57.31
74466;BME280;62916;50.044;15.938;2023-04-30T02:37:55;99361.64;;;18.72;57.34
74466;BME280;62916;50.044;15.938;2023-04-30T02:40:26;99360.32;;;18.70;57.36
74466;BME280;62916;50.044;15.938;2023-04-30T02:42:57;99355.05;;;18.69;57.35
74466;BME280;62916;50.044;15.938;2023-04-30T02:45:31;99361.14;;;18.71;57.44
74466;BME280;62916;50.044;15.938;2023-04-30T02:48:02;99360.15;;;18.71;57.28
74466;BME280;62916;50.044;15.938;2023-04-30T02:50:33;99356.23;;;18.68;57.34
74466;BME280;62916;50.044;15.938;2023-04-30T02:53:04;99364.42;;;18.70;57.40
74466;BME280;62916;50.044;15.938;2023-04-30T02:55:34;99365.59;;;18.71;57.46
74466;BME280;62916;50.044;15.938;2023-04-30T02:58:05;99363.34;;;18.71;57.44
74466;BME280;62916;50.044;15.938;2023-04-30T03:00:36;99364.97;;;18.71;57.41
74466;BME280;62916;50.044;15.938;2023-04-30T03:03:06;99362.91;;;18.70;57.37
74466;BME280;62916;50.044;15.938;2023-04-30T03:05:38;99364.41;;;18.70;57.45
74466;BME280;62916;50.044;15.938;2023-04-30T03:08:09;99370.60;;;18.70;57.47
74466;BME280;62916;50.044;15.938;2023-04-30T03:10:39;99373.36;;;18.69;57.48
74466;BME280;62916;50.044;15.938;2023-04-30T03:13:10;99377.52;;;18.69;57.39
74466;BME280;62916;50.044;15.938;2023-04-30T03:15:41;99381.85;;;18.69;57.50
74466;BME280;62916;50.044;15.938;2023-04-30T03:18:12;99383.55;;;18.68;57.44
74466;BME280;62916;50.044;15.938;2023-04-30T03:20:43;99381.53;;;18.67;57.35
74466;BME280;62916;50.044;15.938;2023-04-30T03:23:13;99385.02;;;18.66;57.37
74466;BME280;62916;50.044;15.938;2023-04-30T03:25:44;99383.69;;;18.65;57.31
74466;BME280;62916;50.044;15.938;2023-04-30T03:28:16;99385.42;;;18.65;57.30
74466;BME280;62916;50.044;15.938;2023-04-30T03:30:47;99387.46;;;18.64;57.34
74466;BME280;62916;50.044;15.938;2023-04-30T03:33:18;99395.05;;;18.64;57.42
74466;BME280;62916;50.044;15.938;2023-04-30T03:35:49;99396.02;;;18.64;57.47
74466;BME280;62916;50.044;15.938;2023-04-30T03:38:20;99399.45;;;18.63;57.49
74466;BME280;62916;50.044;15.938;2023-04-30T03:40:50;99403.52;;;18.62;57.48
74466;BME280;62916;50.044;15.938;2023-04-30T03:43:21;99404.36;;;18.62;57.49
74466;BME280;62916;50.044;15.938;2023-04-30T03:45:52;99406.45;;;18.62;57.59
74466;BME280;62916;50.044;15.938;2023-04-30T03:48:23;99409.14;;;18.62;57.59
74466;BME280;62916;50.044;15.938;2023-04-30T03:50:54;99411.50;;;18.62;57.61
74466;BME280;62916;50.044;15.938;2023-04-30T03:53:25;99412.73;;;18.61;57.62
74466;BME280;62916;50.044;15.938;2023-04-30T03:55:56;99412.18;;;18.61;57.75
74466;BME280;62916;50.044;15.938;2023-04-30T03:58:27;99414.33;;;18.61;57.83
74466;BME280;62916;50.044;15.938;2023-04-30T04:00:58;99418.92;;;18.61;57.72
74466;BME280;62916;50.044;15.938;2023-04-30T04:03:29;99415.12;;;18.60;57.72
74466;BME280;62916;50.044;15.938;2023-04-30T04:06:00;99418.37;;;18.61;57.68
74466;BME280;62916;50.044;15.938;2023-04-30T04:08:33;99419.33;;;18.61;57.76
74466;BME280;62916;50.044;15.938;2023-04-30T04:11:05;99424.05;;;18.61;57.77
74466;BME280;62916;50.044;15.938;2023-04-30T04:13:36;99425.73;;;18.61;57.74
74466;BME280;62916;50.044;15.938;2023-04-30T04:16:08;99429.89;;;18.61;57.66
74466;BME280;62916;50.044;15.938;2023-04-30T04:18:39;99433.71;;;18.60;57.65
74466;BME280;62916;50.044;15.938;2023-04-30T04:21:10;99436.84;;;18.62;57.92
74466;BME280;62916;50.044;15.938;2023-04-30T04:23:41;99441.67;;;18.62;57.89
74466;BME280;62916;50.044;15.938;2023-04-30T04:26:12;99447.85;;;18.62;57.79
74466;BME280;62916;50.044;15.938;2023-04-30T04:28:43;99447.72;;;18.63;57.96
74466;BME280;62916;50.044;15.938;2023-04-30T04:31:14;99450.04;;;18.62;57.90
74466;BME280;62916;50.044;15.938;2023-04-30T04:33:45;99450.43;;;18.62;57.85
74466;BME280;62916;50.044;15.938;2023-04-30T04:36:16;99450.83;;;18.62;57.84
74466;BME280;62916;50.044;15.938;2023-04-30T04:38:47;99450.95;;;18.61;57.92
74466;BME280;62916;50.044;15.938;2023-04-30T04:41:18;99455.28;;;18.61;57.94
74466;BME280;62916;50.044;15.938;2023-04-30T04:43:49;99454.98;;;18.62;57.89
74466;BME280;62916;50.044;15.938;2023-04-30T04:46:21;99458.13;;;18.62;57.96
74466;BME280;62916;50.044;15.938;2023-04-30T04:48:53;99460.67;;;18.61;57.84
74466;BME280;62916;50.044;15.938;2023-04-30T04:51:24;99459.78;;;18.61;57.88
74466;BME280;62916;50.044;15.938;2023-04-30T04:53:55;99461.35;;;18.61;57.92
74466;BME280;62916;50.044;15.938;2023-04-30T04:56:26;99465.62;;;18.61;57.94
74466;BME280;62916;50.044;15.938;2023-04-30T04:58:57;99467.52;;;18.62;57.94
74466;BME280;62916;50.044;15.938;2023-04-30T05:01:28;99467.72;;;18.63;58.01
74466;BME280;62916;50.044;15.938;2023-04-30T05:03:59;99470.60;;;18.62;57.88
74466;BME280;62916;50.044;15.938;2023-04-30T05:06:30;99468.06;;;18.63;57.91
74466;BME280;62916;50.044;15.938;2023-04-30T05:09:01;99470.17;;;18.65;57.97
74466;BME280;62916;50.044;15.938;2023-04-30T05:11:33;99476.40;;;18.65;57.96
74466;BME280;62916;50.044;15.938;2023-04-30T05:14:04;99476.40;;;18.65;57.95
74466;BME280;62916;50.044;15.938;2023-04-30T05:16:35;99478.98;;;18.64;57.81
74466;BME280;62916;50.044;15.938;2023-04-30T05:19:06;99485.63;;;18.64;57.82
74466;BME280;62916;50.044;15.938;2023-04-30T05:21:38;99482.83;;;18.63;57.73
74466;BME280;62916;50.044;15.938;2023-04-30T05:24:09;99482.89;;;18.63;57.77
74466;BME280;62916;50.044;15.938;2023-04-30T05:26:40;99484.14;;;18.62;58.09
74466;BME280;62916;50.044;15.938;2023-04-30T05:29:11;99486.79;;;18.62;57.84
74466;BME280;62916;50.044;15.938;2023-04-30T05:31:42;99492.14;;;18.62;57.81
74466;BME280;62916;50.044;15.938;2023-04-30T05:34:13;99493.03;;;18.62;57.89
74466;BME280;62916;50.044;15.938;2023-04-30T05:36:44;99497.73;;;18.62;57.82
74466;BME280;62916;50.044;15.938;2023-04-30T05:39:14;99502.22;;;18.62;57.82
74466;BME280;62916;50.044;15.938;2023-04-30T05:41:46;99503.08;;;18.62;57.84
74466;BME280;62916;50.044;15.938;2023-04-30T05:44:17;99500.85;;;18.61;57.70
74466;BME280;62916;50.044;15.938;2023-04-30T05:46:48;99501.36;;;18.60;57.73
74466;BME280;62916;50.044;15.938;2023-04-30T05:49:21;99503.16;;;18.60;57.80
74466;BME280;62916;50.044;15.938;2023-04-30T05:51:52;99503.16;;;18.60;57.75
74466;BME280;62916;50.044;15.938;2023-04-30T05:54:23;99506.09;;;18.59;57.70
74466;BME280;62916;50.044;15.938;2023-04-30T05:56:54;99508.44;;;18.60;57.71
74466;BME280;62916;50.044;15.938;2023-04-30T05:59:25;99506.15;;;18.59;57.71
74466;BME280;62916;50.044;15.938;2023-04-30T06:01:56;99507.27;;;18.59;57.92
74466;BME280;62916;50.044;15.938;2023-04-30T06:04:27;99508.12;;;18.59;57.81
74466;BME280;62916;50.044;15.938;2023-04-30T06:06:58;99510.14;;;18.58;57.84
74466;BME280;62916;50.044;15.938;2023-04-30T06:09:29;99513.00;;;18.58;57.64
74466;BME280;62916;50.044;15.938;2023-04-30T06:12:00;99509.98;;;18.57;57.75
74466;BME280;62916;50.044;15.938;2023-04-30T06:14:32;99512.67;;;18.57;57.85
74466;BME280;62916;50.044;15.938;2023-04-30T06:17:03;99511.21;;;18.57;57.81
74466;BME280;62916;50.044;15.938;2023-04-30T06:19:34;99510.52;;;18.57;57.77
74466;BME280;62916;50.044;15.938;2023-04-30T06:22:07;99513.39;;;18.56;57.93
74466;BME280;62916;50.044;15.938;2023-04-30T06:24:38;99513.56;;;18.55;57.91
74466;BME280;62916;50.044;15.938;2023-04-30T06:27:09;99515.02;;;18.56;57.87
74466;BME280;62916;50.044;15.938;2023-04-30T06:29:40;99519.97;;;18.55;57.90
74466;BME280;62916;50.044;15.938;2023-04-30T06:32:11;99523.17;;;18.55;57.94
74466;BME280;62916;50.044;15.938;2023-04-30T06:34:42;99521.94;;;18.55;57.87
74466;BME280;62916;50.044;15.938;2023-04-30T06:37:12;99526.05;;;18.55;57.83
74466;BME280;62916;50.044;15.938;2023-04-30T06:39:43;99525.30;;;18.55;57.86
74466;BME280;62916;50.044;15.938;2023-04-30T06:42:14;99522.71;;;18.56;57.83
74466;BME280;62916;50.044;15.938;2023-04-30T06:44:45;99522.84;;;18.58;57.81
74466;BME280;62916;50.044;15.938;2023-04-30T06:47:16;99521.54;;;18.59;57.75
74466;BME280;62916;50.044;15.938;2023-04-30T06:49:47;99520.52;;;18.59;57.69
74466;BME280;62916;50.044;15.938;2023-04-30T06:52:18;99524.86;;;18.59;57.65
74466;BME280;62916;50.044;15.938;2023-04-30T06:54:49;99524.91;;;18.59;57.67
74466;BME280;62916;50.044;15.938;2023-04-30T06:57:20;99527.33;;;18.58;57.63
74466;BME280;62916;50.044;15.938;2023-04-30T06:59:51;99528.17;;;18.57;57.51
74466;BME280;62916;50.044;15.938;2023-04-30T07:02:22;99525.70;;;18.56;57.58
74466;BME280;62916;50.044;15.938;2023-04-30T07:04:53;99525.52;;;18.57;57.65
74466;BME280;62916;50.044;15.938;2023-04-30T07:07:24;99525.65;;;18.57;57.62
74466;BME280;62916;50.044;15.938;2023-04-30T07:09:55;99527.55;;;18.56;57.51
74466;BME280;62916;50.044;15.938;2023-04-30T07:12:26;99530.13;;;18.56;57.47
74466;BME280;62916;50.044;15.938;2023-04-30T07:14:58;99529.30;;;18.55;57.38
74466;BME280;62916;50.044;15.938;2023-04-30T07:17:29;99527.79;;;18.54;57.46
74466;BME280;62916;50.044;15.938;2023-04-30T07:20:00;99524.55;;;18.53;57.34
74466;BME280;62916;50.044;15.938;2023-04-30T07:22:31;99534.24;;;18.54;57.28
74466;BME280;62916;50.044;15.938;2023-04-30T07:25:02;99530.66;;;18.54;57.26
74466;BME280;62916;50.044;15.938;2023-04-30T07:27:33;99526.83;;;18.53;57.25
74466;BME280;62916;50.044;15.938;2023-04-30T07:30:05;99524.86;;;18.54;57.29
74466;BME280;62916;50.044;15.938;2023-04-30T07:32:36;99524.06;;;18.55;57.27
74466;BME280;62916;50.044;15.938;2023-04-30T07:35:10;99521.82;;;18.55;57.26
74466;BME280;62916;50.044;15.938;2023-04-30T07:37:41;99523.45;;;18.55;57.27
74466;BME280;62916;50.044;15.938;2023-04-30T07:40:13;99526.98;;;18.56;57.14
74466;BME280;62916;50.044;15.938;2023-04-30T07:43:03;99529.08;;;18.54;57.08
74466;BME280;62916;50.044;15.938;2023-04-30T07:45:34;99529.64;;;18.54;57.05
74466;BME280;62916;50.044;15.938;2023-04-30T07:48:06;99532.11;;;18.54;56.91
74466;BME280;62916;50.044;15.938;2023-04-30T07:50:37;99532.01;;;18.54;56.93
74466;BME280;62916;50.044;15.938;2023-04-30T07:53:08;99532.52;;;18.53;56.86
74466;BME280;62916;50.044;15.938;2023-04-30T07:55:39;99533.88;;;18.53;56.88
74466;BME280;62916;50.044;15.938;2023-04-30T07:58:10;99533.77;;;18.53;56.80
74466;BME280;62916;50.044;15.938;2023-04-30T08:00:41;99533.49;;;18.52;56.78
74466;BME280;62916;50.044;15.938;2023-04-30T08:03:12;99529.25;;;18.51;56.74
74466;BME280;62916;50.044;15.938;2023-04-30T08:05:43;99531.05;;;18.50;56.81
74466;BME280;62916;50.044;15.938;2023-04-30T08:08:14;99532.73;;;18.51;56.77
74466;BME280;62916;50.044;15.938;2023-04-30T08:10:45;99533.69;;;18.51;56.75
74466;BME280;62916;50.044;15.938;2023-04-30T08:13:16;99532.89;;;18.51;56.81
74466;BME280;62916;50.044;15.938;2023-04-30T08:15:49;99535.20;;;18.51;56.74
74466;BME280;62916;50.044;15.938;2023-04-30T08:18:20;99530.33;;;18.50;56.59
74466;BME280;62916;50.044;15.938;2023-04-30T08:20:51;99532.21;;;18.52;56.43
74466;BME280;62916;50.044;15.938;2023-04-30T08:23:22;99533.88;;;18.53;56.23
74466;BME280;62916;50.044;15.938;2023-04-30T08:25:53;99539.36;;;18.54;56.32
74466;BME280;62916;50.044;15.938;2023-04-30T08:28:25;99539.30;;;18.55;56.34
74466;BME280;62916;50.044;15.938;2023-04-30T08:30:55;99545.53;;;18.56;56.32
74466;BME280;62916;50.044;15.938;2023-04-30T08:33:27;99542.55;;;18.56;56.34
74466;BME280;62916;50.044;15.938;2023-04-30T08:35:58;99541.70;;;18.57;56.34
74466;BME280;62916;50.044;15.938;2023-04-30T08:38:30;99535.48;;;18.56;56.32
74466;BME280;62916;50.044;15.938;2023-04-30T08:41:07;99531.48;;;18.56;56.44
74466;BME280;62916;50.044;15.938;2023-04-30T08:43:40;99531.89;;;18.58;56.39
74466;BME280;62916;50.044;15.938;2023-04-30T08:46:13;99531.48;;;18.59;56.38
74466;BME280;62916;50.044;15.938;2023-04-30T08:48:46;99530.02;;;18.60;56.43
74466;BME280;62916;50.044;15.938;2023-04-30T08:51:17;99534.33;;;18.61;56.49
74466;BME280;62916;50.044;15.938;2023-04-30T08:53:49;99531.23;;;18.62;56.40
74466;BME280;62916;50.044;15.938;2023-04-30T08:56:20;99530.73;;;18.62;56.43
74466;BME280;62916;50.044;15.938;2023-04-30T08:58:54;99528.77;;;18.65;56.50
74466;BME280;62916;50.044;15.938;2023-04-30T09:01:25;99530.77;;;18.67;56.40
74466;BME280;62916;50.044;15.938;2023-04-30T09:03:58;99533.11;;;18.69;56.33
74466;BME280;62916;50.044;15.938;2023-04-30T09:06:29;99533.16;;;18.71;56.37
74466;BME280;62916;50.044;15.938;2023-04-30T09:09:10;99534.05;;;18.72;56.44
74466;BME280;62916;50.044;15.938;2023-04-30T09:11:41;99532.71;;;18.74;56.46
74466;BME280;62916;50.044;15.938;2023-04-30T09:14:12;99532.69;;;18.77;56.41
74466;BME280;62916;50.044;15.938;2023-04-30T09:16:47;99531.55;;;18.78;56.20
74466;BME280;62916;50.044;15.938;2023-04-30T09:19:25;99533.40;;;18.79;56.32
74466;BME280;62916;50.044;15.938;2023-04-30T09:21:56;99535.69;;;18.80;56.41
74466;BME280;62916;50.044;15.938;2023-04-30T09:24:46;99538.31;;;18.82;56.32
74466;BME280;62916;50.044;15.938;2023-04-30T09:27:19;99537.82;;;18.84;56.32
74466;BME280;62916;50.044;15.938;2023-04-30T09:29:50;99540.49;;;18.86;56.32
74466;BME280;62916;50.044;15.938;2023-04-30T09:32:22;99542.90;;;18.87;56.30
74466;BME280;62916;50.044;15.938;2023-04-30T09:34:53;99545.54;;;18.87;56.27
74466;BME280;62916;50.044;15.938;2023-04-30T09:37:36;99549.19;;;18.89;56.22
74466;BME280;62916;50.044;15.938;2023-04-30T09:40:09;99549.52;;;18.89;56.03
74466;BME280;62916;50.044;15.938;2023-04-30T09:42:41;99548.90;;;18.89;56.03
74466;BME280;62916;50.044;15.938;2023-04-30T09:45:27;99546.93;;;18.90;56.04
74466;BME280;62916;50.044;15.938;2023-04-30T09:48:09;99544.90;;;18.91;56.09
74466;BME280;62916;50.044;15.938;2023-04-30T09:50:46;99535.67;;;18.91;56.18
74466;BME280;62916;50.044;15.938;2023-04-30T09:53:18;99536.79;;;18.92;56.09
74466;BME280;62916;50.044;15.938;2023-04-30T09:55:50;99539.20;;;18.92;56.04
74466;BME280;62916;50.044;15.938;2023-04-30T09:58:21;99538.63;;;18.93;56.09
74466;BME280;62916;50.044;15.938;2023-04-30T10:00:54;99536.06;;;18.92;56.16
74466;BME280;62916;50.044;15.938;2023-04-30T10:03:27;99534.79;;;18.93;56.10
74466;BME280;62916;50.044;15.938;2023-04-30T10:05:59;99529.42;;;18.95;56.15
74466;BME280;62916;50.044;15.938;2023-04-30T10:08:32;99531.71;;;18.97;56.12
74466;BME280;62916;50.044;15.938;2023-04-30T10:11:05;99531.03;;;18.97;56.10
74466;BME280;62916;50.044;15.938;2023-04-30T10:13:42;99526.98;;;18.99;56.12
74466;BME280;62916;50.044;15.938;2023-04-30T10:16:18;99529.27;;;19.00;56.05
74466;BME280;62916;50.044;15.938;2023-04-30T10:18:52;99528.64;;;19.01;56.10
74466;BME280;62916;50.044;15.938;2023-04-30T10:21:25;99530.37;;;19.01;56.05
74466;BME280;62916;50.044;15.938;2023-04-30T10:23:56;99528.48;;;19.01;56.15
74466;BME280;62916;50.044;15.938;2023-04-30T10:26:28;99528.15;;;19.03;56.11
74466;BME280;62916;50.044;15.938;2023-04-30T10:29:00;99523.07;;;19.04;56.18
74466;BME280;62916;50.044;15.938;2023-04-30T10:31:32;99524.23;;;19.06;56.09
74466;BME280;62916;50.044;15.938;2023-04-30T10:34:12;99521.70;;;19.06;56.05
74466;BME280;62916;50.044;15.938;2023-04-30T10:36:47;99515.71;;;19.08;56.14
74466;BME280;62916;50.044;15.938;2023-04-30T10:39:20;99516.20;;;19.09;56.13
74466;BME280;62916;50.044;15.938;2023-04-30T10:41:52;99519.50;;;19.12;56.09
74466;BME280;62916;50.044;15.938;2023-04-30T10:44:32;99521.13;;;19.14;56.14
74466;BME280;62916;50.044;15.938;2023-04-30T10:47:05;99520.39;;;19.16;55.98
74466;BME280;62916;50.044;15.938;2023-04-30T10:49:37;99518.97;;;19.18;55.93
74466;BME280;62916;50.044;15.938;2023-04-30T10:52:11;99516.92;;;19.18;55.86
74466;BME280;62916;50.044;15.938;2023-04-30T10:54:49;99517.04;;;19.19;55.72
74466;BME280;62916;50.044;15.938;2023-04-30T10:57:22;99512.27;;;19.18;55.69
74466;BME280;62916;50.044;15.938;2023-04-30T11:02:46;99507.99;;;19.18;55.68
74466;BME280;62916;50.044;15.938;2023-04-30T11:05:18;99509.95;;;19.19;55.67
74466;BME280;62916;50.044;15.938;2023-04-30T11:07:55;99509.32;;;19.20;55.66
74466;BME280;62916;50.044;15.938;2023-04-30T11:10:27;99506.17;;;19.20;55.52
74466;BME280;62916;50.044;15.938;2023-04-30T11:13:05;99503.41;;;19.19;55.48
74466;BME280;62916;50.044;15.938;2023-04-30T11:15:44;99498.64;;;19.19;55.50
74466;BME280;62916;50.044;15.938;2023-04-30T11:18:16;99499.21;;;19.19;55.46
74466;BME280;62916;50.044;15.938;2023-04-30T11:20:51;99504.31;;;19.19;55.41
74466;BME280;62916;50.044;15.938;2023-04-30T11:23:25;99505.11;;;19.19;55.44
74466;BME280;62916;50.044;15.938;2023-04-30T11:26:08;99505.86;;;19.18;55.34
74466;BME280;62916;50.044;15.938;2023-04-30T11:28:39;99503.09;;;19.19;55.45
74466;BME280;62916;50.044;15.938;2023-04-30T11:31:20;99501.21;;;19.21;55.35
74466;BME280;62916;50.044;15.938;2023-04-30T11:33:51;99498.55;;;19.22;55.34
74466;BME280;62916;50.044;15.938;2023-04-30T11:36:26;99500.09;;;19.21;55.31
74466;BME280;62916;50.044;15.938;2023-04-30T11:39:00;99494.70;;;19.21;55.29
74466;BME280;62916;50.044;15.938;2023-04-30T11:41:41;99495.76;;;19.21;55.25
74466;BME280;62916;50.044;15.938;2023-04-30T11:44:24;99495.68;;;19.23;55.29
74466;BME280;62916;50.044;15.938;2023-04-30T11:46:56;99498.27;;;19.22;55.17
74466;BME280;62916;50.044;15.938;2023-04-30T11:49:27;99490.80;;;19.24;55.21
74466;BME280;62916;50.044;15.938;2023-04-30T11:51:59;99492.48;;;19.25;55.21
74466;BME280;62916;50.044;15.938;2023-04-30T11:54:34;99491.99;;;19.28;55.32
74466;BME280;62916;50.044;15.938;2023-04-30T11:57:05;99490.23;;;19.30;55.24
74466;BME280;62916;50.044;15.938;2023-04-30T11:59:41;99490.31;;;19.32;55.24
74466;BME280;62916;50.044;15.938;2023-04-30T12:02:15;99486.58;;;19.36;55.33
74466;BME280;62916;50.044;15.938;2023-04-30T12:04:47;99488.35;;;19.38;55.31
74466;BME280;62916;50.044;15.938;2023-04-30T12:07:18;99485.89;;;19.41;55.43
74466;BME280;62916;50.044;15.938;2023-04-30T12:09:55;99490.05;;;19.45;55.37
74466;BME280;62916;50.044;15.938;2023-04-30T12:12:30;99492.66;;;19.46;55.27
74466;BME280;62916;50.044;15.938;2023-04-30T12:15:11;99496.44;;;19.49;55.32
74466;BME280;62916;50.044;15.938;2023-04-30T12:17:43;99493.40;;;19.49;55.38
74466;BME280;62916;50.044;15.938;2023-04-30T12:20:15;99489.81;;;19.53;55.33
74466;BME280;62916;50.044;15.938;2023-04-30T12:22:47;99484.42;;;19.54;55.32
74466;BME280;62916;50.044;15.938;2023-04-30T12:25:20;99484.92;;;19.59;55.25
74466;BME280;62916;50.044;15.938;2023-04-30T12:27:52;99485.13;;;19.60;55.24
74466;BME280;62916;50.044;15.938;2023-04-30T12:30:24;99485.43;;;19.63;55.14
74466;BME280;62916;50.044;15.938;2023-04-30T12:32:58;99483.14;;;19.65;55.20
74466;BME280;62916;50.044;15.938;2023-04-30T12:35:30;99478.77;;;19.67;55.23
74466;BME280;62916;50.044;15.938;2023-04-30T12:38:05;99478.12;;;19.69;55.20
74466;BME280;62916;50.044;15.938;2023-04-30T12:40:38;99476.84;;;19.72;55.11
74466;BME280;62916;50.044;15.938;2023-04-30T12:43:13;99479.18;;;19.73;55.16
74466;BME280;62916;50.044;15.938;2023-04-30T12:45:49;99480.36;;;19.75;55.25
74466;BME280;62916;50.044;15.938;2023-04-30T12:48:25;99481.63;;;19.78;55.09
74466;BME280;62916;50.044;15.938;2023-04-30T12:50:59;99484.52;;;19.80;55.14
74466;BME280;62916;50.044;15.938;2023-04-30T12:53:32;99482.88;;;19.82;55.09
74466;BME280;62916;50.044;15.938;2023-04-30T12:56:12;99482.95;;;19.84;55.06
74466;BME280;62916;50.044;15.938;2023-04-30T12:58:45;99479.67;;;19.87;55.04
74466;BME280;62916;50.044;15.938;2023-04-30T13:01:20;99480.65;;;19.89;55.08
74466;BME280;62916;50.044;15.938;2023-04-30T13:03:53;99480.01;;;19.91;54.94
74466;BME280;62916;50.044;15.938;2023-04-30T13:06:25;99476.59;;;19.93;55.02
74466;BME280;62916;50.044;15.938;2023-04-30T13:08:56;99474.19;;;19.95;54.94
74466;BME280;62916;50.044;15.938;2023-04-30T13:11:27;99471.12;;;19.96;54.84
74466;BME280;62916;50.044;15.938;2023-04-30T13:13:58;99470.54;;;19.97;54.76
74466;BME280;62916;50.044;15.938;2023-04-30T13:16:30;99469.97;;;19.98;54.74
74466;BME280;62916;50.044;15.938;2023-04-30T13:19:01;99469.11;;;19.99;54.70
74466;BME280;62916;50.044;15.938;2023-04-30T13:21:33;99464.50;;;19.98;54.53